createdAt,value
2023-01-11T00:00:45.728Z,5.82
2023-01-11T00:03:13.466Z,6.53
2023-01-11T00:05:42.497Z,6.72
2023-01-11T00:08:10.814Z,7.13
2023-01-11T00:10:38.630Z,6.57
2023-01-11T00:13:06.095Z,6.43
2023-01-11T00:15:36.764Z,6.70
2023-01-11T00:20:31.229Z,6.50
2023-01-11T00:22:58.555Z,6.95
2023-01-11T00:25:28.614Z,6.90
2023-01-11T00:27:55.920Z,6.38
2023-01-11T00:30:23.594Z,6.47
2023-01-11T00:32:58.631Z,6.43
2023-01-11T00:35:27.880Z,5.93
2023-01-11T00:37:55.256Z,5.32
2023-01-11T00:40:24.268Z,5.13
2023-01-11T00:43:10.061Z,5.82
2023-01-11T00:45:56.484Z,6.10
2023-01-11T00:48:23.885Z,5.97
2023-01-11T00:50:55.580Z,4.95
2023-01-11T00:53:23.574Z,6.05
2023-01-11T00:55:50.878Z,5.22
2023-01-11T00:58:18.208Z,5.85
2023-01-11T01:00:45.578Z,5.05
2023-01-11T01:03:12.941Z,5.55
2023-01-11T01:05:43.318Z,5.93
2023-01-11T01:08:10.626Z,5.60
2023-01-11T01:10:38.036Z,5.00
2023-01-11T01:13:23.827Z,5.57
2023-01-11T01:15:58.222Z,5.70
2023-01-11T01:18:25.602Z,5.60
2023-01-11T01:20:52.871Z,5.60
2023-01-11T01:23:20.293Z,4.68
2023-01-11T01:25:47.852Z,5.22
2023-01-11T01:28:15.172Z,5.38
2023-01-11T01:30:42.455Z,5.10
2023-01-11T01:33:10.279Z,5.60
2023-01-11T01:35:38.860Z,4.65
2023-01-11T01:38:06.176Z,5.82
2023-01-11T01:40:41.585Z,5.40
2023-01-11T01:43:17.074Z,5.18
2023-01-11T01:45:44.798Z,5.15
2023-01-11T01:48:16.083Z,4.93
2023-01-11T01:50:55.597Z,4.60
2023-01-11T01:53:40.683Z,4.22
2023-01-11T01:56:24.243Z,4.57
2023-01-11T01:59:00.624Z,5.35
2023-01-11T02:01:46.634Z,4.38
2023-01-11T02:04:23.541Z,5.22
2023-01-11T02:06:57.709Z,5.07
2023-01-11T02:09:40.343Z,4.78
2023-01-11T02:12:08.581Z,4.60
2023-01-11T02:14:37.922Z,5.13
2023-01-11T02:17:05.801Z,4.78
2023-01-11T02:19:38.607Z,4.80
2023-01-11T02:22:15.056Z,4.65
2023-01-11T02:25:15.652Z,4.80
2023-01-11T02:28:04.141Z,4.40
2023-01-11T02:30:44.496Z,5.00
2023-01-11T02:33:46.201Z,4.65
2023-01-11T02:36:52.393Z,4.30
2023-01-11T02:39:33.818Z,4.38
2023-01-11T02:42:27.757Z,4.32
2023-01-11T02:45:13.446Z,4.20
2023-01-11T02:48:05.412Z,4.70
2023-01-11T02:50:42.699Z,4.35
2023-01-11T02:53:23.568Z,3.75
2023-01-11T02:58:23.851Z,3.90
2023-01-11T03:00:55.866Z,2.80
2023-01-11T03:03:30.673Z,2.83
2023-01-11T03:06:03.440Z,2.95
2023-01-11T03:09:08.913Z,3.03
2023-01-11T03:12:10.142Z,2.60
2023-01-11T03:15:04.964Z,2.60
2023-01-11T03:17:44.708Z,3.00
2023-01-11T03:20:21.102Z,2.55
2023-01-11T03:23:36.022Z,1.98
2023-01-11T03:26:36.654Z,2.10
2023-01-11T03:29:13.190Z,2.15
2023-01-11T03:32:01.590Z,2.15
2023-01-11T03:34:34.595Z,2.10
2023-01-11T03:37:31.546Z,2.20
2023-01-11T03:40:04.014Z,2.65
2023-01-11T03:42:56.542Z,2.40
2023-01-11T03:45:26.899Z,2.35
2023-01-11T03:47:55.770Z,2.50
2023-01-11T03:50:23.597Z,2.47
2023-01-11T03:52:52.472Z,2.10
2023-01-11T03:55:24.607Z,1.90
2023-01-11T03:57:54.848Z,2.00
2023-01-11T04:00:23.142Z,1.90
2023-01-11T04:02:50.459Z,2.00
2023-01-11T04:05:17.734Z,1.98
2023-01-11T04:07:45.052Z,1.60
2023-01-11T04:10:12.461Z,1.63
2023-01-11T04:12:39.731Z,1.60
2023-01-11T04:15:09.479Z,1.67
2023-01-11T04:17:36.876Z,1.80
2023-01-11T04:20:04.636Z,2.00
2023-01-11T04:22:31.987Z,2.70
2023-01-11T04:24:59.655Z,2.28
2023-01-11T04:27:27.427Z,2.10
2023-01-11T04:29:54.730Z,2.28
2023-01-11T04:32:22.418Z,3.40
2023-01-11T04:34:50.590Z,3.30
2023-01-11T04:37:17.886Z,4.13
2023-01-11T04:39:45.194Z,3.47
2023-01-11T04:42:18.454Z,3.40
2023-01-11T04:44:48.821Z,2.78
2023-01-11T04:47:17.202Z,3.45
2023-01-11T04:49:45.659Z,2.80
2023-01-11T04:52:15.185Z,2.53
2023-01-11T04:54:42.784Z,2.92
2023-01-11T04:57:15.156Z,2.58
2023-01-11T04:59:42.828Z,2.30
2023-01-11T05:02:10.065Z,2.10
2023-01-11T05:04:38.469Z,2.88
2023-01-11T05:07:08.061Z,2.35
2023-01-11T05:09:35.781Z,2.17
2023-01-11T05:12:03.258Z,2.35
2023-01-11T05:14:30.615Z,3.10
2023-01-11T05:16:58.874Z,2.60
2023-01-11T05:19:28.905Z,1.90
2023-01-11T05:21:56.482Z,2.50
2023-01-11T05:24:23.925Z,2.42
2023-01-11T05:26:52.473Z,2.58
2023-01-11T05:29:21.196Z,2.83
2023-01-11T05:31:49.073Z,1.92
2023-01-11T05:34:17.500Z,3.03
2023-01-11T05:36:45.280Z,2.05
2023-01-11T05:39:14.298Z,2.13
2023-01-11T05:41:41.744Z,2.40
2023-01-11T05:44:45.388Z,3.10
2023-01-11T05:47:12.627Z,2.30
2023-01-11T05:49:40.348Z,2.15
2023-01-11T05:52:07.995Z,2.72
2023-01-11T05:54:35.708Z,1.90
2023-01-11T05:57:03.161Z,2.30
2023-01-11T05:59:32.174Z,2.70
2023-01-11T06:01:59.979Z,1.83
2023-01-11T06:04:30.245Z,2.03
2023-01-11T06:06:57.540Z,1.92
2023-01-11T06:09:25.266Z,2.15
2023-01-11T06:11:52.531Z,2.28
2023-01-11T06:14:19.780Z,2.40
2023-01-11T06:16:47.135Z,2.30
2023-01-11T06:19:15.814Z,2.72
2023-01-11T06:21:43.082Z,2.53
2023-01-11T06:24:10.424Z,2.17
2023-01-11T06:26:41.233Z,3.10
2023-01-11T06:31:36.288Z,2.70
2023-01-11T06:34:03.629Z,2.60
2023-01-11T06:36:30.953Z,2.88
2023-01-11T06:38:58.310Z,2.92
2023-01-11T06:41:25.677Z,2.72
2023-01-11T06:43:53.034Z,3.40
2023-01-11T06:46:21.170Z,3.78
2023-01-11T06:48:48.626Z,3.38
2023-01-11T06:51:16.517Z,3.03
2023-01-11T06:53:44.699Z,3.63
2023-01-11T06:56:14.925Z,3.88
2023-01-11T06:58:43.201Z,3.83
2023-01-11T07:01:11.827Z,3.10
2023-01-11T07:03:40.349Z,2.85
2023-01-11T07:06:07.997Z,2.75
2023-01-11T07:08:35.320Z,3.72
2023-01-11T07:11:02.654Z,3.40
2023-01-11T07:13:30.280Z,2.67
2023-01-11T07:15:57.998Z,3.58
2023-01-11T07:18:25.507Z,3.72
2023-01-11T07:20:53.365Z,3.60
2023-01-11T07:23:23.265Z,2.70
2023-01-11T07:25:50.643Z,4.47
2023-01-11T07:28:18.025Z,3.47
2023-01-11T07:30:57.380Z,3.28
2023-01-11T07:33:27.950Z,3.33
2023-01-11T07:35:55.461Z,3.25
2023-01-11T07:38:24.696Z,3.33
2023-01-11T07:40:52.125Z,3.05
2023-01-11T07:43:21.547Z,3.30
2023-01-11T07:45:51.420Z,3.03
2023-01-11T07:48:27.347Z,3.67
2023-01-11T07:50:55.390Z,3.30
2023-01-11T07:53:25.845Z,3.50
2023-01-11T07:58:22.960Z,2.75
2023-01-11T08:00:50.349Z,3.10
2023-01-11T08:03:17.813Z,3.05
2023-01-11T08:05:49.745Z,3.45
2023-01-11T08:08:17.073Z,2.50
2023-01-11T08:10:44.310Z,2.40
2023-01-11T08:13:34.494Z,3.45
2023-01-11T08:16:01.857Z,2.10
2023-01-11T08:18:29.123Z,1.88
2023-01-11T08:20:56.402Z,1.60
2023-01-11T08:23:23.857Z,2.17
2023-01-11T08:25:56.860Z,1.60
2023-01-11T08:28:24.610Z,2.00
2023-01-11T08:30:51.944Z,1.80
2023-01-11T08:33:19.281Z,2.35
2023-01-11T08:35:46.638Z,2.17
2023-01-11T08:38:14.115Z,2.65
2023-01-11T08:40:41.794Z,1.92
2023-01-11T08:43:10.045Z,2.60
2023-01-11T08:45:37.839Z,1.90
2023-01-11T08:48:05.670Z,1.90
2023-01-11T08:50:33.533Z,2.17
2023-01-11T08:53:01.208Z,2.30
2023-01-11T08:55:31.412Z,2.28
2023-01-11T08:57:58.864Z,2.55
2023-01-11T09:00:26.693Z,2.00
2023-01-11T09:02:54.043Z,2.22
2023-01-11T09:05:21.698Z,2.00
2023-01-11T09:07:48.932Z,3.83
2023-01-11T09:10:16.389Z,2.30
2023-01-11T09:12:43.842Z,2.25
2023-01-11T09:15:11.603Z,2.20
2023-01-11T09:17:39.116Z,2.33
2023-01-11T09:20:06.949Z,3.08
2023-01-11T09:22:35.095Z,2.92
2023-01-11T09:25:02.911Z,3.20
2023-01-11T09:27:30.543Z,2.50
2023-01-11T09:29:57.840Z,2.35
2023-01-11T09:32:25.188Z,3.60
2023-01-11T09:34:57.257Z,2.50
2023-01-11T09:37:25.004Z,2.17
2023-01-11T09:39:52.710Z,2.85
2023-01-11T09:42:39.154Z,2.25
2023-01-11T09:45:13.225Z,2.72
2023-01-11T09:48:01.333Z,2.92
2023-01-11T09:50:32.485Z,2.45
2023-01-11T09:53:05.006Z,2.83
2023-01-11T09:55:43.347Z,2.83
2023-01-11T09:58:29.279Z,2.83
2023-01-11T10:01:12.474Z,2.40
2023-01-11T10:04:08.069Z,2.15
2023-01-11T10:06:55.979Z,2.55
2023-01-11T10:18:22.683Z,2.28
2023-01-11T10:19:32.147Z,1.80
2023-01-11T10:22:31.798Z,3.08
2023-01-11T10:25:28.058Z,3.25
2023-01-11T10:28:06.082Z,3.03
2023-01-11T10:30:57.547Z,2.10
2023-01-11T10:33:47.816Z,2.10
2023-01-11T10:37:21.424Z,2.40
2023-01-11T10:40:28.471Z,3.33
2023-01-11T10:43:17.171Z,3.05
2023-01-11T10:45:50.484Z,3.05
2023-01-11T10:48:39.770Z,2.53
2023-01-11T10:51:30.125Z,3.50
2023-01-11T10:54:16.257Z,2.75
2023-01-11T10:57:23.123Z,2.38
2023-01-11T10:59:57.166Z,2.10
2023-01-11T11:02:49.454Z,3.25
2023-01-11T11:06:19.711Z,2.63
2023-01-11T11:08:59.701Z,2.30
2023-01-11T11:11:41.184Z,2.10
2023-01-11T11:14:18.996Z,1.98
2023-01-11T11:16:57.379Z,2.85
2023-01-11T11:19:30.599Z,3.50
2023-01-11T11:21:58.066Z,2.08
2023-01-11T11:24:47.092Z,2.42
2023-01-11T11:27:26.609Z,2.33
2023-01-11T11:29:57.108Z,2.53
2023-01-11T11:32:37.615Z,2.17
2023-01-11T11:35:07.797Z,2.78
2023-01-11T11:37:40.702Z,2.40
2023-01-11T11:40:36.906Z,1.65
2023-01-11T11:43:14.784Z,1.95
2023-01-11T11:45:52.149Z,2.67
2023-01-11T11:48:20.053Z,2.30
2023-01-11T11:50:49.568Z,2.47
2023-01-11T11:53:43.279Z,2.28
2023-01-11T11:56:29.608Z,2.08
2023-01-11T11:58:58.675Z,1.98
2023-01-11T12:01:34.147Z,2.38
2023-01-11T12:04:24.002Z,2.25
2023-01-11T12:07:07.943Z,2.97
2023-01-11T12:09:36.610Z,2.55
2023-01-11T12:12:04.535Z,3.10
2023-01-11T12:14:36.561Z,2.30
2023-01-11T12:17:24.038Z,2.88
2023-01-11T12:19:51.929Z,2.88
2023-01-11T12:22:24.312Z,3.13
2023-01-11T12:25:13.863Z,2.40
2023-01-11T12:28:05.961Z,3.40
2023-01-11T12:31:03.491Z,2.80
2023-01-11T12:33:48.109Z,3.20
2023-01-11T12:36:54.444Z,2.90
2023-01-11T12:39:54.486Z,3.67
2023-01-11T12:42:49.638Z,2.63
2023-01-11T12:45:19.896Z,3.33
2023-01-11T12:48:17.399Z,3.53
2023-01-11T12:51:05.129Z,3.08
2023-01-11T12:54:10.991Z,2.83
2023-01-11T12:57:11.084Z,2.50
2023-01-11T13:00:02.996Z,2.95
2023-01-11T13:02:45.508Z,2.85
2023-01-11T13:05:28.015Z,2.90
2023-01-11T13:08:21.993Z,3.00
2023-01-11T13:11:34.054Z,3.25
2023-01-11T13:14:33.676Z,3.72
2023-01-11T13:17:04.625Z,3.17
2023-01-11T13:20:09.802Z,2.85
2023-01-11T13:22:42.259Z,2.80
2023-01-11T13:25:26.792Z,3.20
2023-01-11T13:27:57.237Z,4.05
2023-01-11T13:30:25.369Z,2.45
2023-01-11T13:33:07.108Z,2.88
2023-01-11T13:35:41.171Z,3.50
2023-01-11T13:38:34.831Z,2.33
2023-01-11T13:41:15.354Z,3.15
2023-01-11T13:43:54.060Z,4.60
2023-01-11T13:46:31.323Z,2.88
2023-01-11T13:49:04.169Z,3.30
2023-01-11T13:51:40.167Z,4.43
2023-01-11T13:54:25.487Z,3.30
2023-01-11T13:57:00.941Z,3.42
2023-01-11T13:59:37.803Z,3.90
2023-01-11T14:02:14.598Z,2.95
2023-01-11T14:05:22.036Z,3.53
2023-01-11T14:08:22.692Z,3.17
2023-01-11T14:11:15.868Z,3.88
2023-01-11T14:14:16.463Z,3.78
2023-01-11T14:16:59.013Z,4.15
2023-01-11T14:19:44.580Z,3.53
2023-01-11T14:22:28.779Z,3.25
2023-01-11T14:25:22.311Z,4.15
2023-01-11T14:28:12.397Z,3.08
2023-01-11T14:30:49.188Z,2.80
2023-01-11T14:33:50.572Z,3.05
2023-01-11T14:36:51.953Z,2.83
2023-01-11T14:39:50.250Z,3.45
2023-01-11T14:42:45.387Z,3.20
2023-01-11T14:45:19.882Z,3.22
2023-01-11T14:48:05.172Z,3.17
2023-01-11T14:50:50.872Z,3.38
2023-01-11T14:53:24.009Z,3.75
2023-01-11T14:55:51.935Z,3.70
2023-01-11T14:58:32.052Z,3.45
2023-01-11T15:01:00.035Z,3.65
2023-01-11T15:03:43.031Z,3.97
2023-01-11T15:06:20.583Z,3.85
2023-01-11T15:08:51.233Z,3.22
2023-01-11T15:11:29.761Z,4.13
2023-01-11T15:14:23.097Z,3.47
2023-01-11T15:17:13.330Z,3.25
2023-01-11T15:19:43.723Z,3.50
2023-01-11T15:22:28.263Z,3.85
2023-01-11T15:24:59.812Z,3.30
2023-01-11T15:27:38.414Z,3.17
2023-01-11T15:30:27.754Z,3.30
2023-01-11T15:33:17.780Z,3.78
2023-01-11T15:35:57.507Z,3.53
2023-01-11T15:38:34.038Z,4.57
2023-01-11T15:41:22.719Z,4.20
2023-01-11T15:44:02.670Z,3.38
2023-01-11T15:47:24.762Z,4.13
2023-01-11T15:50:13.485Z,5.75
2023-01-11T15:52:50.681Z,4.15
2023-01-11T15:55:42.894Z,3.58
2023-01-11T15:58:35.621Z,3.10
2023-01-11T16:01:25.611Z,3.80
2023-01-11T16:04:12.001Z,3.40
2023-01-11T16:06:57.335Z,4.10
2023-01-11T16:09:51.484Z,5.47
2023-01-11T16:12:40.786Z,3.38
2023-01-11T16:15:44.197Z,4.85
2023-01-11T16:18:15.435Z,4.43
2023-01-11T16:20:54.557Z,3.80
2023-01-11T16:23:23.977Z,3.45
2023-01-11T16:25:56.513Z,4.43
2023-01-11T16:28:25.489Z,3.20
2023-01-11T16:31:01.537Z,3.85
2023-01-11T16:33:31.696Z,3.88
2023-01-11T16:36:10.055Z,3.55
2023-01-11T16:38:47.106Z,3.33
2023-01-11T16:41:18.519Z,4.07
2023-01-11T16:43:59.875Z,3.53
2023-01-11T16:46:45.815Z,4.40
2023-01-11T16:49:19.837Z,4.15
2023-01-11T16:51:49.770Z,4.40
2023-01-11T16:54:28.844Z,3.60
2023-01-11T16:56:57.948Z,3.10
2023-01-11T16:59:33.961Z,3.63
2023-01-11T17:02:03.839Z,3.83
2023-01-11T17:04:35.836Z,2.80
2023-01-11T17:07:22.476Z,4.13
2023-01-11T17:09:50.186Z,3.63
2023-01-11T17:12:26.893Z,3.72
2023-01-11T17:15:12.994Z,4.07
2023-01-11T17:17:40.563Z,3.42
2023-01-11T17:20:20.233Z,4.72
2023-01-11T17:22:50.683Z,5.00
2023-01-11T17:25:22.721Z,3.67
2023-01-11T17:28:00.999Z,3.80
2023-01-11T17:30:30.431Z,3.78
2023-01-11T17:32:59.735Z,3.90
2023-01-11T17:35:30.498Z,3.83
2023-01-11T17:38:00.726Z,3.40
2023-01-11T17:40:40.279Z,3.42
2023-01-11T17:43:39.771Z,3.30
2023-01-11T17:46:09.876Z,3.47
2023-01-11T17:48:40.406Z,3.33
2023-01-11T17:51:08.428Z,3.72
2023-01-11T17:53:38.227Z,3.58
2023-01-11T17:56:13.136Z,3.50
2023-01-11T17:58:40.517Z,3.28
2023-01-11T18:01:18.460Z,4.13
2023-01-11T18:03:58.957Z,3.50
2023-01-11T18:06:45.169Z,3.85
2023-01-11T18:09:23.252Z,3.85
2023-01-11T18:11:52.163Z,2.90
2023-01-11T18:14:25.416Z,3.42
2023-01-11T18:16:57.591Z,3.25
2023-01-11T18:19:41.556Z,4.75
2023-01-11T18:22:42.882Z,4.70
2023-01-11T18:25:19.430Z,3.58
2023-01-11T18:27:47.735Z,4.85
2023-01-11T18:30:30.943Z,3.95
2023-01-11T18:33:02.004Z,3.50
2023-01-11T18:35:30.084Z,4.07
2023-01-11T18:37:57.365Z,5.07
2023-01-11T18:40:24.728Z,4.20
2023-01-11T18:42:53.905Z,3.75
2023-01-11T18:45:22.053Z,3.50
2023-01-11T18:47:49.507Z,3.38
2023-01-11T18:50:19.530Z,4.22
2023-01-11T18:52:47.151Z,3.47
2023-01-11T18:55:15.360Z,3.90
2023-01-11T18:57:42.775Z,4.18
2023-01-11T19:00:15.193Z,4.25
2023-01-11T19:02:43.922Z,3.80
2023-01-11T19:05:13.583Z,3.55
2023-01-11T19:07:40.941Z,4.15
2023-01-11T19:10:10.901Z,3.20
2023-01-11T19:12:38.151Z,5.68
2023-01-11T19:15:05.987Z,4.00
2023-01-11T19:17:33.670Z,4.60
2023-01-11T19:20:01.228Z,4.03
2023-01-11T19:22:28.661Z,3.95
2023-01-11T19:24:56.430Z,5.30
2023-01-11T19:27:23.887Z,4.05
2023-01-11T19:29:52.711Z,3.65
2023-01-11T19:32:25.178Z,3.13
2023-01-11T19:34:53.628Z,3.97
2023-01-11T19:37:20.969Z,3.75
2023-01-11T19:39:48.351Z,3.38
2023-01-11T19:42:17.772Z,3.88
2023-01-11T19:44:45.383Z,3.58
2023-01-11T19:47:15.969Z,4.43
2023-01-11T19:49:44.274Z,4.22
2023-01-11T19:52:14.251Z,4.43
2023-01-11T19:54:42.956Z,6.40
2023-01-11T19:57:15.287Z,7.00
2023-01-11T19:59:42.698Z,5.85
2023-01-11T20:02:17.487Z,8.27
2023-01-11T20:04:44.977Z,4.90
2023-01-11T20:07:14.065Z,4.20
2023-01-11T20:09:41.467Z,3.58
2023-01-11T20:12:11.626Z,4.15
2023-01-11T20:14:40.677Z,3.75
2023-01-11T20:17:10.755Z,3.15
2023-01-11T20:19:38.492Z,3.30
2023-01-11T20:22:06.167Z,3.53
2023-01-11T20:24:34.807Z,4.25
2023-01-11T20:27:03.575Z,2.85
2023-01-11T20:29:30.998Z,4.00
2023-01-11T20:32:18.696Z,3.83
2023-01-11T20:34:46.464Z,3.47
2023-01-11T20:37:15.091Z,2.80
2023-01-11T20:39:42.827Z,3.00
2023-01-11T20:42:12.521Z,4.20
2023-01-11T20:44:40.153Z,3.30
2023-01-11T20:47:07.469Z,3.00
2023-01-11T20:49:35.031Z,4.28
2023-01-11T20:52:02.512Z,2.83
2023-01-11T20:54:29.967Z,3.88
2023-01-11T20:57:02.162Z,4.05
2023-01-11T20:59:32.434Z,3.08
2023-01-11T21:02:00.127Z,3.72
2023-01-11T21:04:28.037Z,3.10
2023-01-11T21:06:55.326Z,3.42
2023-01-11T21:09:22.799Z,3.03
2023-01-11T21:11:54.071Z,2.60
2023-01-11T21:14:22.618Z,3.45
2023-01-11T21:16:50.069Z,2.83
2023-01-11T21:19:17.535Z,3.97
2023-01-11T21:21:44.895Z,3.35
2023-01-11T21:24:14.570Z,3.38
2023-01-11T21:26:43.588Z,3.50
2023-01-11T21:29:11.918Z,3.95
2023-01-11T21:31:39.844Z,2.65
2023-01-11T21:34:07.985Z,3.67
2023-01-11T21:36:35.467Z,3.78
2023-01-11T21:39:04.022Z,3.72
2023-01-11T21:41:51.402Z,4.05
2023-01-11T21:44:20.734Z,4.95
2023-01-11T21:46:49.221Z,3.53
2023-01-11T21:49:17.771Z,3.28
2023-01-11T21:51:45.646Z,4.07
2023-01-11T21:54:15.083Z,3.90
2023-01-11T21:56:42.423Z,3.70
2023-01-11T21:59:10.881Z,3.25
2023-01-11T22:01:40.907Z,3.80
2023-01-11T22:04:10.542Z,3.03
2023-01-11T22:06:42.341Z,2.80
2023-01-11T22:09:11.632Z,2.80
2023-01-11T22:11:39.949Z,3.17
2023-01-11T22:14:08.798Z,4.45
2023-01-11T22:16:38.591Z,2.80
2023-01-11T22:19:07.696Z,3.13
2023-01-11T22:21:37.107Z,3.05
2023-01-11T22:24:06.862Z,3.25
2023-01-11T22:29:17.029Z,3.50
2023-01-11T22:31:47.103Z,2.83
2023-01-11T22:34:15.702Z,3.40
2023-01-11T22:36:43.951Z,3.70
2023-01-11T22:39:13.427Z,2.97
2023-01-11T22:41:40.877Z,2.67
2023-01-11T22:44:09.362Z,1.80
2023-01-11T22:46:37.685Z,2.38
2023-01-11T22:49:08.734Z,2.17
2023-01-11T22:51:38.490Z,2.20
2023-01-11T22:54:05.864Z,2.10
2023-01-11T22:56:33.836Z,2.05
2023-01-11T22:59:02.215Z,1.98
2023-01-11T23:01:30.997Z,2.03
2023-01-11T23:03:59.682Z,2.13
2023-01-11T23:06:40.352Z,2.55
2023-01-11T23:09:10.497Z,2.47
2023-01-11T23:11:58.409Z,2.65
2023-01-11T23:14:30.689Z,2.80
2023-01-11T23:17:18.788Z,3.03
2023-01-11T23:19:46.199Z,1.90
2023-01-11T23:22:15.623Z,3.35
2023-01-11T23:24:43.256Z,2.53
2023-01-11T23:27:10.786Z,1.95
2023-01-11T23:29:38.225Z,2.92
2023-01-11T23:32:05.723Z,3.83
2023-01-11T23:34:33.592Z,2.50
2023-01-11T23:37:02.363Z,2.30
2023-01-11T23:39:30.738Z,2.42
2023-01-11T23:42:16.784Z,2.80
2023-01-11T23:44:46.857Z,3.10
2023-01-11T23:47:24.982Z,3.15
2023-01-11T23:49:54.647Z,2.33
2023-01-11T23:52:25.070Z,2.92
2023-01-11T23:54:52.679Z,2.95
2023-01-11T23:57:25.566Z,2.80
2023-01-11T23:59:53.072Z,2.72
